sensor_id;sensor_type;location;lat;lon;timestamp;pressure;altitude;pressure_sealevel;temperature;humidity
10587;BME280;5341;47.606;7.576;2024-01-10T00:00:41;99531.66;;;2.16;62.80
10587;BME280;5341;47.606;7.576;2024-01-10T00:03:11;99531.66;;;2.16;62.62
10587;BME280;5341;47.606;7.576;2024-01-10T00:05:39;99529.88;;;2.16;62.51
10587;BME280;5341;47.606;7.576;2024-01-10T00:08:07;99527.22;;;2.16;62.21
10587;BME280;5341;47.606;7.576;2024-01-10T00:10:35;99526.38;;;2.16;62.29
10587;BME280;5341;47.606;7.576;2024-01-10T00:13:03;99529.97;;;2.15;62.57
10587;BME280;5341;47.606;7.576;2024-01-10T00:15:30;99528.19;;;2.15;62.78
10587;BME280;5341;47.606;7.576;2024-01-10T00:17:59;99530.81;;;2.15;62.53
10587;BME280;5341;47.606;7.576;2024-01-10T00:20:27;99527.34;;;2.15;62.74
10587;BME280;5341;47.606;7.576;2024-01-10T00:22:55;99524.69;;;2.15;62.51
10587;BME280;5341;47.606;7.576;2024-01-10T00:25:22;99526.50;;;2.14;62.84
10587;BME280;5341;47.606;7.576;2024-01-10T00:27:50;99524.69;;;2.15;62.65
10587;BME280;5341;47.606;7.576;2024-01-10T00:30:17;99524.69;;;2.15;62.47
10587;BME280;5341;47.606;7.576;2024-01-10T00:32:45;99527.34;;;2.15;62.45
10587;BME280;5341;47.606;7.576;2024-01-10T00:35:15;99541.25;;;2.17;62.66
10587;BME280;5341;47.606;7.576;2024-01-10T00:37:42;99534.19;;;2.17;62.88
10587;BME280;5341;47.606;7.576;2024-01-10T00:40:11;99527.22;;;2.16;62.77
10587;BME280;5341;47.606;7.576;2024-01-10T00:42:39;99527.13;;;2.18;62.77
10587;BME280;5341;47.606;7.576;2024-01-10T00:45:09;99525.44;;;2.17;62.40
10587;BME280;5341;47.606;7.576;2024-01-10T00:47:37;99521.09;;;2.16;62.47
10587;BME280;5341;47.606;7.576;2024-01-10T00:50:06;99521.94;;;2.16;62.30
10587;BME280;5341;47.606;7.576;2024-01-10T00:52:36;99531.66;;;2.16;62.71
10587;BME280;5341;47.606;7.576;2024-01-10T00:55:04;99524.69;;;2.15;62.85
10587;BME280;5341;47.606;7.576;2024-01-10T00:57:33;99523.88;;;2.14;62.82
10587;BME280;5341;47.606;7.576;2024-01-10T01:00:01;99519.53;;;2.13;62.66
10587;BME280;5341;47.606;7.576;2024-01-10T01:02:29;99526.63;;;2.13;62.63
10587;BME280;5341;47.606;7.576;2024-01-10T01:04:57;99521.34;;;2.13;62.66
10587;BME280;5341;47.606;7.576;2024-01-10T01:07:26;99526.50;;;2.14;62.62
10587;BME280;5341;47.606;7.576;2024-01-10T01:09:55;99515.09;;;2.14;62.19
10587;BME280;5341;47.606;7.576;2024-01-10T01:12:22;99516.06;;;2.13;62.52
10587;BME280;5341;47.606;7.576;2024-01-10T01:14:52;99521.34;;;2.13;62.86
10587;BME280;5341;47.606;7.576;2024-01-10T01:17:21;99518.69;;;2.13;62.75
10587;BME280;5341;47.606;7.576;2024-01-10T01:19:48;99519.53;;;2.13;62.87
10587;BME280;5341;47.606;7.576;2024-01-10T01:22:16;99523.03;;;2.14;62.26
10587;BME280;5341;47.606;7.576;2024-01-10T01:24:44;99525.66;;;2.14;62.25
10587;BME280;5341;47.606;7.576;2024-01-10T01:27:12;99520.38;;;2.14;62.19
10587;BME280;5341;47.606;7.576;2024-01-10T01:29:41;99517.75;;;2.14;62.30
10587;BME280;5341;47.606;7.576;2024-01-10T01:32:09;99517.00;;;2.12;62.41
10587;BME280;5341;47.606;7.576;2024-01-10T01:34:37;99515.22;;;2.12;62.35
10587;BME280;5341;47.606;7.576;2024-01-10T01:37:04;99524.94;;;2.12;62.37
10587;BME280;5341;47.606;7.576;2024-01-10T01:39:32;99538.97;;;2.12;62.81
10587;BME280;5341;47.606;7.576;2024-01-10T01:41:59;99551.31;;;2.12;62.58
10587;BME280;5341;47.606;7.576;2024-01-10T01:44:28;99552.28;;;2.11;62.09
10587;BME280;5341;47.606;7.576;2024-01-10T01:46:59;99553.22;;;2.10;62.42
10587;BME280;5341;47.606;7.576;2024-01-10T01:49:29;99557.78;;;2.08;62.48
10587;BME280;5341;47.606;7.576;2024-01-10T01:51:58;99564.84;;;2.07;62.55
10587;BME280;5341;47.606;7.576;2024-01-10T01:54:27;99558.72;;;2.07;62.37
10587;BME280;5341;47.606;7.576;2024-01-10T01:56:54;99551.72;;;2.05;62.01
10587;BME280;5341;47.606;7.576;2024-01-10T01:59:24;99560.59;;;2.04;61.84
10587;BME280;5341;47.606;7.576;2024-01-10T02:01:54;99558.91;;;2.03;61.80
10587;BME280;5341;47.606;7.576;2024-01-10T02:04:23;99553.63;;;2.03;62.58
10587;BME280;5341;47.606;7.576;2024-01-10T02:06:51;99559.75;;;2.04;62.08
10587;BME280;5341;47.606;7.576;2024-01-10T02:09:19;99558.91;;;2.03;62.00
10587;BME280;5341;47.606;7.576;2024-01-10T02:11:46;99560.72;;;2.03;62.13
10587;BME280;5341;47.606;7.576;2024-01-10T02:14:14;99560.72;;;2.03;62.17
10587;BME280;5341;47.606;7.576;2024-01-10T02:16:42;99559.75;;;2.04;62.18
10587;BME280;5341;47.606;7.576;2024-01-10T02:19:22;99554.47;;;2.04;62.27
10587;BME280;5341;47.606;7.576;2024-01-10T02:21:50;99556.28;;;2.03;62.32
10587;BME280;5341;47.606;7.576;2024-01-10T02:24:18;99555.31;;;2.04;62.38
10587;BME280;5341;47.606;7.576;2024-01-10T02:26:50;99563.16;;;2.06;62.56
10587;BME280;5341;47.606;7.576;2024-01-10T02:29:19;99563.16;;;2.06;62.70
10587;BME280;5341;47.606;7.576;2024-01-10T02:31:46;99564.84;;;2.07;62.49
10587;BME280;5341;47.606;7.576;2024-01-10T02:34:14;99564.94;;;2.05;62.23
10587;BME280;5341;47.606;7.576;2024-01-10T02:36:43;99566.72;;;2.05;62.55
10587;BME280;5341;47.606;7.576;2024-01-10T02:39:11;99565.78;;;2.06;62.34
10587;BME280;5341;47.606;7.576;2024-01-10T02:41:39;99564.09;;;2.05;62.22
10587;BME280;5341;47.606;7.576;2024-01-10T02:44:08;99561.38;;;2.07;62.79
10587;BME280;5341;47.606;7.576;2024-01-10T02:46:37;99548.19;;;2.07;62.73
10587;BME280;5341;47.606;7.576;2024-01-10T02:49:04;99554.19;;;2.09;62.21
10587;BME280;5341;47.606;7.576;2024-01-10T02:51:33;99539.31;;;2.08;62.40
10587;BME280;5341;47.606;7.576;2024-01-10T02:54:02;99544.47;;;2.09;62.93
10587;BME280;5341;47.606;7.576;2024-01-10T02:56:29;99538.34;;;2.09;62.61
10587;BME280;5341;47.606;7.576;2024-01-10T02:58:58;99537.50;;;2.08;62.42
10587;BME280;5341;47.606;7.576;2024-01-10T03:01:27;99540.16;;;2.08;62.29
10587;BME280;5341;47.606;7.576;2024-01-10T03:03:56;99540.16;;;2.08;62.59
10587;BME280;5341;47.606;7.576;2024-01-10T03:06:23;99546.38;;;2.07;62.77
10587;BME280;5341;47.606;7.576;2024-01-10T03:08:51;99549.00;;;2.07;62.38
10587;BME280;5341;47.606;7.576;2024-01-10T03:11:19;99545.53;;;2.07;62.43
10587;BME280;5341;47.606;7.576;2024-01-10T03:14:00;99534.97;;;2.07;62.38
10587;BME280;5341;47.606;7.576;2024-01-10T03:16:29;99525.28;;;2.07;62.48
10587;BME280;5341;47.606;7.576;2024-01-10T03:18:58;99524.31;;;2.08;62.95
10587;BME280;5341;47.606;7.576;2024-01-10T03:21:26;99530.44;;;2.09;62.72
10587;BME280;5341;47.606;7.576;2024-01-10T03:23:55;99523.47;;;2.08;62.60
10587;BME280;5341;47.606;7.576;2024-01-10T03:26:23;99522.53;;;2.09;62.69
10587;BME280;5341;47.606;7.576;2024-01-10T03:28:51;99528.75;;;2.08;62.56
10587;BME280;5341;47.606;7.576;2024-01-10T03:31:18;99532.22;;;2.08;62.48
10587;BME280;5341;47.606;7.576;2024-01-10T03:33:48;99529.47;;;2.10;62.45
10587;BME280;5341;47.606;7.576;2024-01-10T03:36:17;99533.91;;;2.09;62.65
10587;BME280;5341;47.606;7.576;2024-01-10T03:38:45;99519.88;;;2.09;62.78
10587;BME280;5341;47.606;7.576;2024-01-10T03:41:13;99537.50;;;2.08;62.74
10587;BME280;5341;47.606;7.576;2024-01-10T03:43:41;99531.28;;;2.09;62.83
10587;BME280;5341;47.606;7.576;2024-01-10T03:46:09;99529.47;;;2.10;62.89
10587;BME280;5341;47.606;7.576;2024-01-10T03:48:36;99526.00;;;2.09;62.33
10587;BME280;5341;47.606;7.576;2024-01-10T03:51:08;99525.16;;;2.09;62.87
10587;BME280;5341;47.606;7.576;2024-01-10T03:53:36;99527.06;;;2.07;62.70
10587;BME280;5341;47.606;7.576;2024-01-10T03:56:04;99528.75;;;2.08;62.47
10587;BME280;5341;47.606;7.576;2024-01-10T03:58:32;99528.88;;;2.06;62.51
10587;BME280;5341;47.606;7.576;2024-01-10T04:01:04;99534.97;;;2.07;62.56
10587;BME280;5341;47.606;7.576;2024-01-10T04:03:31;99535.06;;;2.05;62.32
10587;BME280;5341;47.606;7.576;2024-01-10T04:05:59;99538.66;;;2.04;62.50
10587;BME280;5341;47.606;7.576;2024-01-10T04:08:28;99539.63;;;2.03;62.45
10587;BME280;5341;47.606;7.576;2024-01-10T04:10:55;99534.34;;;2.03;62.51
10587;BME280;5341;47.606;7.576;2024-01-10T04:13:25;99541.41;;;2.02;62.53
10587;BME280;5341;47.606;7.576;2024-01-10T04:15:52;99538.78;;;2.02;62.64
10587;BME280;5341;47.606;7.576;2024-01-10T04:18:20;99530.84;;;2.02;62.14
10587;BME280;5341;47.606;7.576;2024-01-10T04:20:48;99528.94;;;2.04;62.67
10587;BME280;5341;47.606;7.576;2024-01-10T04:23:15;99527.16;;;2.05;62.74
10587;BME280;5341;47.606;7.576;2024-01-10T04:25:47;99520.06;;;2.05;62.42
10587;BME280;5341;47.606;7.576;2024-01-10T04:28:15;99518.41;;;2.04;62.69
10587;BME280;5341;47.606;7.576;2024-01-10T04:30:42;99512.16;;;2.05;62.83
10587;BME280;5341;47.606;7.576;2024-01-10T04:33:10;99516.59;;;2.05;62.82
10587;BME280;5341;47.606;7.576;2024-01-10T04:35:37;99520.94;;;2.06;62.57
10587;BME280;5341;47.606;7.576;2024-01-10T04:38:05;99535.81;;;2.07;62.68
10587;BME280;5341;47.606;7.576;2024-01-10T04:40:32;99527.06;;;2.07;62.52
10587;BME280;5341;47.606;7.576;2024-01-10T04:43:01;99541.09;;;2.07;62.67
10587;BME280;5341;47.606;7.576;2024-01-10T04:45:29;99550.69;;;2.08;62.66
10587;BME280;5341;47.606;7.576;2024-01-10T04:47:56;99536.66;;;2.08;62.65
10587;BME280;5341;47.606;7.576;2024-01-10T04:50:23;99534.03;;;2.08;62.60
10587;BME280;5341;47.606;7.576;2024-01-10T04:52:51;99530.44;;;2.09;62.89
10587;BME280;5341;47.606;7.576;2024-01-10T04:55:18;99525.16;;;2.09;62.64
10587;BME280;5341;47.606;7.576;2024-01-10T04:57:46;99530.44;;;2.09;62.91
10587;BME280;5341;47.606;7.576;2024-01-10T05:00:16;99532.13;;;2.10;62.93
10587;BME280;5341;47.606;7.576;2024-01-10T05:02:45;99532.13;;;2.10;62.88
10587;BME280;5341;47.606;7.576;2024-01-10T05:05:12;99529.47;;;2.10;62.70
10587;BME280;5341;47.606;7.576;2024-01-10T05:07:40;99532.13;;;2.10;62.65
10587;BME280;5341;47.606;7.576;2024-01-10T05:10:08;99528.63;;;2.09;63.14
10587;BME280;5341;47.606;7.576;2024-01-10T05:12:35;99541.00;;;2.09;62.35
10587;BME280;5341;47.606;7.576;2024-01-10T05:15:03;99534.75;;;2.10;62.98
10587;BME280;5341;47.606;7.576;2024-01-10T05:17:32;99538.34;;;2.09;62.62
10587;BME280;5341;47.606;7.576;2024-01-10T05:20:00;99543.63;;;2.09;62.96
10587;BME280;5341;47.606;7.576;2024-01-10T05:22:29;99543.63;;;2.09;62.95
10587;BME280;5341;47.606;7.576;2024-01-10T05:24:56;99545.41;;;2.08;62.64
10587;BME280;5341;47.606;7.576;2024-01-10T05:27:24;99550.69;;;2.08;62.92
10587;BME280;5341;47.606;7.576;2024-01-10T05:29:51;99545.53;;;2.07;62.45
10587;BME280;5341;47.606;7.576;2024-01-10T05:32:19;99543.75;;;2.07;62.51
10587;BME280;5341;47.606;7.576;2024-01-10T05:34:48;99542.06;;;2.06;62.41
10587;BME280;5341;47.606;7.576;2024-01-10T05:37:16;99525.34;;;2.05;62.46
10587;BME280;5341;47.606;7.576;2024-01-10T05:39:43;99533.25;;;2.05;62.29
10587;BME280;5341;47.606;7.576;2024-01-10T05:42:11;99536.78;;;2.06;62.58
10587;BME280;5341;47.606;7.576;2024-01-10T05:44:38;99540.25;;;2.07;62.65
10587;BME280;5341;47.606;7.576;2024-01-10T05:47:06;99539.41;;;2.06;62.85
10587;BME280;5341;47.606;7.576;2024-01-10T05:49:33;99546.47;;;2.05;63.05
10587;BME280;5341;47.606;7.576;2024-01-10T05:52:01;99542.13;;;2.04;62.84
10587;BME280;5341;47.606;7.576;2024-01-10T05:54:29;99550.81;;;2.07;62.30
10587;BME280;5341;47.606;7.576;2024-01-10T05:56:57;99545.72;;;2.03;62.82
10587;BME280;5341;47.606;7.576;2024-01-10T05:59:26;99545.72;;;2.03;62.42
10587;BME280;5341;47.606;7.576;2024-01-10T06:01:54;99543.94;;;2.04;62.34
10587;BME280;5341;47.606;7.576;2024-01-10T06:04:21;99532.53;;;2.03;62.66
10587;BME280;5341;47.606;7.576;2024-01-10T06:06:49;99531.69;;;2.03;62.58
10587;BME280;5341;47.606;7.576;2024-01-10T06:09:20;99530.75;;;2.04;62.81
10587;BME280;5341;47.606;7.576;2024-01-10T06:11:49;99537.81;;;2.03;63.01
10587;BME280;5341;47.606;7.576;2024-01-10T06:14:16;99534.34;;;2.03;62.61
10587;BME280;5341;47.606;7.576;2024-01-10T06:16:44;99545.72;;;2.03;62.48
10587;BME280;5341;47.606;7.576;2024-01-10T06:19:12;99534.34;;;2.03;62.88
10587;BME280;5341;47.606;7.576;2024-01-10T06:21:39;99543.19;;;2.02;62.75
10587;BME280;5341;47.606;7.576;2024-01-10T06:24:08;99541.53;;;2.01;62.37
10587;BME280;5341;47.606;7.576;2024-01-10T06:26:37;99527.50;;;2.00;62.54
10587;BME280;5341;47.606;7.576;2024-01-10T06:29:04;99532.75;;;2.00;62.62
10587;BME280;5341;47.606;7.576;2024-01-10T06:31:32;99531.94;;;2.00;62.52
10587;BME280;5341;47.606;7.576;2024-01-10T06:33:59;99537.19;;;2.00;62.78
10587;BME280;5341;47.606;7.576;2024-01-10T06:36:27;99538.16;;;1.99;62.79
10587;BME280;5341;47.606;7.576;2024-01-10T06:38:54;99540.69;;;2.00;62.82
10587;BME280;5341;47.606;7.576;2024-01-10T06:41:22;99526.66;;;2.00;62.70
10587;BME280;5341;47.606;7.576;2024-01-10T06:43:52;99531.94;;;2.00;62.65
10587;BME280;5341;47.606;7.576;2024-01-10T06:46:21;99544.28;;;1.99;62.77
10587;BME280;5341;47.606;7.576;2024-01-10T06:48:48;99532.88;;;1.99;62.55
10587;BME280;5341;47.606;7.576;2024-01-10T06:51:16;99539.00;;;1.99;62.95
10587;BME280;5341;47.606;7.576;2024-01-10T06:53:45;99530.25;;;1.99;62.86
10587;BME280;5341;47.606;7.576;2024-01-10T06:56:13;99539.84;;;2.00;62.71
10587;BME280;5341;47.606;7.576;2024-01-10T06:58:40;99545.94;;;2.00;62.44
10587;BME280;5341;47.606;7.576;2024-01-10T07:01:13;99549.44;;;2.01;62.86
10587;BME280;5341;47.606;7.576;2024-01-10T07:03:42;99548.59;;;2.00;62.77
10587;BME280;5341;47.606;7.576;2024-01-10T07:06:11;99534.56;;;2.00;62.62
10587;BME280;5341;47.606;7.576;2024-01-10T07:08:40;99533.59;;;2.01;62.58
10587;BME280;5341;47.606;7.576;2024-01-10T07:11:08;99542.47;;;2.00;63.09
10587;BME280;5341;47.606;7.576;2024-01-10T07:13:37;99542.38;;;2.01;62.81
10587;BME280;5341;47.606;7.576;2024-01-10T07:16:07;99547.53;;;2.03;62.81
10587;BME280;5341;47.606;7.576;2024-01-10T07:18:37;99543.19;;;2.02;62.89
10587;BME280;5341;47.606;7.576;2024-01-10T07:21:05;99549.44;;;2.01;62.92
10587;BME280;5341;47.606;7.576;2024-01-10T07:23:32;99557.34;;;2.01;62.68
10587;BME280;5341;47.606;7.576;2024-01-10T07:26:02;99559.16;;;2.00;62.58
10587;BME280;5341;47.606;7.576;2024-01-10T07:28:30;99553.03;;;2.00;62.31
10587;BME280;5341;47.606;7.576;2024-01-10T07:30:58;99559.16;;;2.00;62.60
10587;BME280;5341;47.606;7.576;2024-01-10T07:33:28;99559.16;;;2.00;62.39
10587;BME280;5341;47.606;7.576;2024-01-10T07:35:58;99560.00;;;2.01;62.44
10587;BME280;5341;47.606;7.576;2024-01-10T07:38:25;99556.63;;;1.99;62.73
10587;BME280;5341;47.606;7.576;2024-01-10T07:40:54;99551.47;;;1.97;62.40
10587;BME280;5341;47.606;7.576;2024-01-10T07:43:21;99551.47;;;1.97;62.88
10587;BME280;5341;47.606;7.576;2024-01-10T07:45:50;99557.56;;;1.98;62.46
10587;BME280;5341;47.606;7.576;2024-01-10T07:48:18;99553.25;;;1.97;62.98
10587;BME280;5341;47.606;7.576;2024-01-10T07:50:46;99560.31;;;1.96;62.69
10587;BME280;5341;47.606;7.576;2024-01-10T07:53:15;99555.06;;;1.96;62.36
10587;BME280;5341;47.606;7.576;2024-01-10T07:55:42;99559.47;;;1.96;62.42
10587;BME280;5341;47.606;7.576;2024-01-10T07:58:10;99565.59;;;1.96;62.54
10587;BME280;5341;47.606;7.576;2024-01-10T08:00:38;99564.75;;;1.96;62.85
10587;BME280;5341;47.606;7.576;2024-01-10T08:03:07;99573.50;;;1.96;62.90
10587;BME280;5341;47.606;7.576;2024-01-10T08:05:36;99573.63;;;1.95;62.51
10587;BME280;5341;47.606;7.576;2024-01-10T08:08:04;99580.69;;;1.94;62.83
10587;BME280;5341;47.606;7.576;2024-01-10T08:10:33;99579.81;;;1.94;62.88
10587;BME280;5341;47.606;7.576;2024-01-10T08:13:01;99580.78;;;1.93;62.93
10587;BME280;5341;47.606;7.576;2024-01-10T08:15:28;99586.03;;;1.93;62.56
10587;BME280;5341;47.606;7.576;2024-01-10T08:17:56;99587.84;;;1.92;62.92
10587;BME280;5341;47.606;7.576;2024-01-10T08:20:23;99587.00;;;1.92;62.90
10587;BME280;5341;47.606;7.576;2024-01-10T08:22:51;99594.06;;;1.91;62.36
10587;BME280;5341;47.606;7.576;2024-01-10T08:25:19;99589.84;;;1.89;62.22
10587;BME280;5341;47.606;7.576;2024-01-10T08:27:48;99588.91;;;1.90;62.69
10587;BME280;5341;47.606;7.576;2024-01-10T08:30:18;99583.63;;;1.90;62.54
10587;BME280;5341;47.606;7.576;2024-01-10T08:32:47;99585.53;;;1.88;62.28
10587;BME280;5341;47.606;7.576;2024-01-10T08:35:15;99580.16;;;1.89;62.90
10587;BME280;5341;47.606;7.576;2024-01-10T08:37:42;99576.69;;;1.89;62.59
10587;BME280;5341;47.606;7.576;2024-01-10T08:40:11;99588.06;;;1.89;62.95
10587;BME280;5341;47.606;7.576;2024-01-10T08:42:41;99595.97;;;1.89;62.82
10587;BME280;5341;47.606;7.576;2024-01-10T08:45:10;99593.34;;;1.89;62.97
10587;BME280;5341;47.606;7.576;2024-01-10T08:47:38;99583.84;;;1.87;62.46
10587;BME280;5341;47.606;7.576;2024-01-10T08:50:07;99595.25;;;1.87;62.90
10587;BME280;5341;47.606;7.576;2024-01-10T08:52:37;99586.50;;;1.87;63.01
10587;BME280;5341;47.606;7.576;2024-01-10T08:55:05;99589.84;;;1.89;62.78
10587;BME280;5341;47.606;7.576;2024-01-10T08:57:33;99580.38;;;1.86;62.85
10587;BME280;5341;47.606;7.576;2024-01-10T09:00:00;99584.69;;;1.87;62.67
10587;BME280;5341;47.606;7.576;2024-01-10T09:02:33;99580.16;;;1.89;62.46
10587;BME280;5341;47.606;7.576;2024-01-10T09:05:03;99577.41;;;1.91;62.70
10587;BME280;5341;47.606;7.576;2024-01-10T09:07:30;99579.19;;;1.90;63.01
10587;BME280;5341;47.606;7.576;2024-01-10T09:09:58;99577.41;;;1.91;63.15
10587;BME280;5341;47.606;7.576;2024-01-10T09:12:26;99578.13;;;1.93;62.92
10587;BME280;5341;47.606;7.576;2024-01-10T09:14:54;99572.03;;;1.92;62.87
10587;BME280;5341;47.606;7.576;2024-01-10T09:17:21;99584.16;;;1.95;62.95
10587;BME280;5341;47.606;7.576;2024-01-10T09:19:50;99572.78;;;1.94;62.96
10587;BME280;5341;47.606;7.576;2024-01-10T09:22:18;99578.06;;;1.94;63.08
10587;BME280;5341;47.606;7.576;2024-01-10T09:24:45;99579.81;;;1.94;63.16
10587;BME280;5341;47.606;7.576;2024-01-10T09:27:13;99592.09;;;1.95;62.69
10587;BME280;5341;47.606;7.576;2024-01-10T09:29:40;99600.00;;;1.95;62.97
10587;BME280;5341;47.606;7.576;2024-01-10T09:32:08;99612.22;;;1.96;62.86
10587;BME280;5341;47.606;7.576;2024-01-10T09:34:36;99612.22;;;1.96;63.12
10587;BME280;5341;47.606;7.576;2024-01-10T09:37:04;99614.03;;;1.95;62.86
10587;BME280;5341;47.606;7.576;2024-01-10T09:39:32;99624.47;;;1.97;62.99
10587;BME280;5341;47.606;7.576;2024-01-10T09:42:00;99624.59;;;1.95;63.17
10587;BME280;5341;47.606;7.576;2024-01-10T09:44:28;99622.78;;;1.96;62.81
10587;BME280;5341;47.606;7.576;2024-01-10T09:46:56;99628.16;;;1.94;62.95
10587;BME280;5341;47.606;7.576;2024-01-10T09:49:24;99635.13;;;1.95;62.55
10587;BME280;5341;47.606;7.576;2024-01-10T09:51:57;99635.13;;;1.95;62.80
10587;BME280;5341;47.606;7.576;2024-01-10T09:54:29;99644.00;;;1.94;62.45
10587;BME280;5341;47.606;7.576;2024-01-10T09:56:57;99639.56;;;1.95;62.99
10587;BME280;5341;47.606;7.576;2024-01-10T09:59:25;99640.41;;;1.95;63.12
10587;BME280;5341;47.606;7.576;2024-01-10T10:01:56;99637.75;;;1.95;62.67
10587;BME280;5341;47.606;7.576;2024-01-10T10:04:27;99633.34;;;1.96;62.54
10587;BME280;5341;47.606;7.576;2024-01-10T10:06:58;99628.78;;;1.98;63.24
10587;BME280;5341;47.606;7.576;2024-01-10T10:09:29;99631.31;;;1.99;62.89
10587;BME280;5341;47.606;7.576;2024-01-10T10:11:57;99632.06;;;2.01;63.37
10587;BME280;5341;47.606;7.576;2024-01-10T10:14:28;99622.22;;;2.03;63.25
10587;BME280;5341;47.606;7.576;2024-01-10T10:16:56;99621.28;;;2.04;63.27
10587;BME280;5341;47.606;7.576;2024-01-10T10:19:24;99632.59;;;2.07;63.16
10587;BME280;5341;47.606;7.576;2024-01-10T10:21:52;99629.94;;;2.07;63.35
10587;BME280;5341;47.606;7.576;2024-01-10T10:24:20;99626.38;;;2.08;62.99
10587;BME280;5341;47.606;7.576;2024-01-10T10:26:50;99627.19;;;2.08;63.23
10587;BME280;5341;47.606;7.576;2024-01-10T10:29:18;99620.25;;;2.07;62.92
10587;BME280;5341;47.606;7.576;2024-01-10T10:31:47;99623.72;;;2.08;63.46
10587;BME280;5341;47.606;7.576;2024-01-10T10:34:21;99622.78;;;2.09;63.69
10587;BME280;5341;47.606;7.576;2024-01-10T10:36:49;99616.53;;;2.10;63.55
10587;BME280;5341;47.606;7.576;2024-01-10T10:39:17;99625.28;;;2.10;63.23
10587;BME280;5341;47.606;7.576;2024-01-10T10:41:47;99626.03;;;2.12;63.29
10587;BME280;5341;47.606;7.576;2024-01-10T10:44:19;99625.06;;;2.13;63.66
10587;BME280;5341;47.606;7.576;2024-01-10T10:46:49;99623.28;;;2.14;63.58
10587;BME280;5341;47.606;7.576;2024-01-10T10:49:23;99623.16;;;2.15;63.61
10587;BME280;5341;47.606;7.576;2024-01-10T10:51:57;99617.88;;;2.15;63.39
10587;BME280;5341;47.606;7.576;2024-01-10T10:54:28;99613.47;;;2.16;63.62
10587;BME280;5341;47.606;7.576;2024-01-10T10:56:59;99610.81;;;2.16;63.62
10587;BME280;5341;47.606;7.576;2024-01-10T10:59:32;99610.81;;;2.16;63.52
10587;BME280;5341;47.606;7.576;2024-01-10T11:02:01;99603.84;;;2.15;63.21
10587;BME280;5341;47.606;7.576;2024-01-10T11:04:29;99609.13;;;2.15;63.61
10587;BME280;5341;47.606;7.576;2024-01-10T11:06:57;99602.16;;;2.14;63.66
10587;BME280;5341;47.606;7.576;2024-01-10T11:09:25;99599.41;;;2.15;63.75
10587;BME280;5341;47.606;7.576;2024-01-10T11:12:09;99600.16;;;2.17;63.61
10587;BME280;5341;47.606;7.576;2024-01-10T11:14:51;99596.59;;;2.18;63.57
10587;BME280;5341;47.606;7.576;2024-01-10T11:17:40;99589.53;;;2.19;63.58
10587;BME280;5341;47.606;7.576;2024-01-10T11:20:22;99586.97;;;2.17;63.58
10587;BME280;5341;47.606;7.576;2024-01-10T11:23:05;99586.88;;;2.19;63.81
10587;BME280;5341;47.606;7.576;2024-01-10T11:25:37;99587.81;;;2.18;63.63
10587;BME280;5341;47.606;7.576;2024-01-10T11:28:04;99592.16;;;2.19;63.61
10587;BME280;5341;47.606;7.576;2024-01-10T11:30:47;99591.19;;;2.20;64.09
10587;BME280;5341;47.606;7.576;2024-01-10T11:33:20;99597.31;;;2.20;64.00
10587;BME280;5341;47.606;7.576;2024-01-10T11:36:06;99596.38;;;2.21;64.03
10587;BME280;5341;47.606;7.576;2024-01-10T11:38:41;99588.44;;;2.21;63.79
10587;BME280;5341;47.606;7.576;2024-01-10T11:41:13;99584.84;;;2.22;63.90
10587;BME280;5341;47.606;7.576;2024-01-10T11:43:42;99589.28;;;2.22;63.93
10587;BME280;5341;47.606;7.576;2024-01-10T11:46:12;99585.69;;;2.23;64.19
10587;BME280;5341;47.606;7.576;2024-01-10T11:48:41;99582.09;;;2.24;64.10
10587;BME280;5341;47.606;7.576;2024-01-10T11:51:09;99575.97;;;2.23;64.22
10587;BME280;5341;47.606;7.576;2024-01-10T11:53:43;99581.25;;;2.23;63.79
10587;BME280;5341;47.606;7.576;2024-01-10T11:56:13;99582.09;;;2.24;64.41
10587;BME280;5341;47.606;7.576;2024-01-10T11:59:00;99583.78;;;2.25;63.97
10587;BME280;5341;47.606;7.576;2024-01-10T12:01:29;99581.25;;;2.23;64.40
10587;BME280;5341;47.606;7.576;2024-01-10T12:03:57;99581.25;;;2.23;63.83
10587;BME280;5341;47.606;7.576;2024-01-10T12:06:26;99575.97;;;2.23;63.91
10587;BME280;5341;47.606;7.576;2024-01-10T12:08:53;99583.06;;;2.23;63.80
10587;BME280;5341;47.606;7.576;2024-01-10T12:11:21;99579.47;;;2.24;64.25
10587;BME280;5341;47.606;7.576;2024-01-10T12:13:48;99587.38;;;2.24;64.20
10587;BME280;5341;47.606;7.576;2024-01-10T12:16:16;99590.03;;;2.24;64.21
10587;BME280;5341;47.606;7.576;2024-01-10T12:18:46;99587.38;;;2.24;64.13
10587;BME280;5341;47.606;7.576;2024-01-10T12:21:13;99590.75;;;2.26;63.96
10587;BME280;5341;47.606;7.576;2024-01-10T12:23:41;99589.06;;;2.25;63.96
10587;BME280;5341;47.606;7.576;2024-01-10T12:26:09;99594.34;;;2.25;64.08
10587;BME280;5341;47.606;7.576;2024-01-10T12:28:38;99590.84;;;2.24;63.91
10587;BME280;5341;47.606;7.576;2024-01-10T12:31:08;99596.97;;;2.25;63.66
10587;BME280;5341;47.606;7.576;2024-01-10T12:33:37;99589.19;;;2.23;63.82
10587;BME280;5341;47.606;7.576;2024-01-10T12:36:08;99594.34;;;2.25;64.13
10587;BME280;5341;47.606;7.576;2024-01-10T12:38:38;99590.03;;;2.24;63.81
10587;BME280;5341;47.606;7.576;2024-01-10T12:41:05;99589.91;;;2.25;64.13
10587;BME280;5341;47.606;7.576;2024-01-10T12:43:35;99584.63;;;2.25;63.90
10587;BME280;5341;47.606;7.576;2024-01-10T12:46:03;99585.59;;;2.24;64.13
10587;BME280;5341;47.606;7.576;2024-01-10T12:48:32;99585.47;;;2.26;64.17
10587;BME280;5341;47.606;7.576;2024-01-10T12:51:03;99588.94;;;2.26;64.34
10587;BME280;5341;47.606;7.576;2024-01-10T12:53:35;99587.28;;;2.25;63.96
10587;BME280;5341;47.606;7.576;2024-01-10T12:56:04;99580.19;;;2.26;63.82
10587;BME280;5341;47.606;7.576;2024-01-10T12:58:31;99587.16;;;2.27;63.99
10587;BME280;5341;47.606;7.576;2024-01-10T13:00:58;99588.84;;;2.28;64.19
10587;BME280;5341;47.606;7.576;2024-01-10T13:03:26;99588.84;;;2.28;64.27
10587;BME280;5341;47.606;7.576;2024-01-10T13:05:53;99592.31;;;2.28;64.06
10587;BME280;5341;47.606;7.576;2024-01-10T13:08:21;99594.00;;;2.29;64.06
10587;BME280;5341;47.606;7.576;2024-01-10T13:10:50;99589.56;;;2.30;64.10
10587;BME280;5341;47.606;7.576;2024-01-10T13:13:19;99587.88;;;2.29;64.29
10587;BME280;5341;47.606;7.576;2024-01-10T13:15:47;99589.69;;;2.28;64.25
10587;BME280;5341;47.606;7.576;2024-01-10T13:18:15;99594.13;;;2.28;63.69
10587;BME280;5341;47.606;7.576;2024-01-10T13:20:43;99597.59;;;2.28;64.13
10587;BME280;5341;47.606;7.576;2024-01-10T13:23:11;99596.63;;;2.29;64.26
10587;BME280;5341;47.606;7.576;2024-01-10T13:25:39;99598.44;;;2.29;64.04
10587;BME280;5341;47.606;7.576;2024-01-10T13:28:08;99599.28;;;2.29;64.37
10587;BME280;5341;47.606;7.576;2024-01-10T13:30:38;99598.44;;;2.29;64.41